Main page
METAR-TAF:

METAR-TAF

Airports :

Lanai Airport

Lāna'i City, Hawaii, United States

latitude: 20-47N, longitude: 156-57W, elevation: 399 m

Current weather observation

The report was made 1 hour and 10 minutes ago, at 12:56 UTC
Wind 9 kt from the North/Northeast
Temperature 18°C
Humidity 100%
Pressure 1021 hPa
Visibility: 16.1 km
Clear sky

METAR: PHNY 221256Z AUTO 02009KT 10SM CLR 18/18 A3014 RMK AO2 SLP186 T01780178

Time: 04:06 (14:06 UTC)

Forecast

The report was made 2 hours and 46 minutes ago, at 11:20 UTC
Forecast valid from 22 at 12 UTC to 23 at 12 UTC
Wind 6 kt from the East
Visibility: 10 km
Few clouds at a height of 2500 ft
From 22 at 2200 UTC
Wind 8 kt from the West/Southwest
Visibility: 10 km
Broken clouds at a height of 2500 ft
From 23 at 0500 UTC
Wind 6 kt from the East/Northeast
Visibility: 10 km
Scattered clouds at a height of 2500 ft
Broken clouds at a height of 3500 ft

TAF: PHNY 221120Z 2212/2312 08006KT P6SM FEW025 FM222200 25008KT P6SM BKN025 FM230500 06006KT P6SM SCT025 BKN035

Weather observations and forecasts of more than 4000 airports (METAR and TAF reports).

The available stations are represented by yellow and red dots on the map.

Hover mouse over dot to see the name of the station.

Then click to see weather observations and forecasts.

To change the map : click on the green buttons with a black cross to zoom in, on the green button with a dash to zoom out, or on the green arrows for adjacent maps.


METAR-TAF: